createdAt,value
2018-12-21T00:00:47.728Z,8.38
2018-12-21T00:01:47.717Z,8.37
2018-12-21T00:02:47.711Z,8.23
2018-12-21T00:03:47.701Z,8.37
2018-12-21T00:04:47.695Z,8.41
2018-12-21T00:05:47.683Z,8.36
2018-12-21T00:06:47.677Z,8.33
2018-12-21T00:07:47.672Z,8.28
2018-12-21T00:08:47.662Z,8.40
2018-12-21T00:09:47.651Z,8.43
2018-12-21T00:10:47.643Z,8.40
2018-12-21T00:11:47.636Z,8.38
2018-12-21T00:12:47.627Z,8.43
2018-12-21T00:13:47.618Z,8.34
2018-12-21T00:14:47.607Z,8.37
2018-12-21T00:15:47.601Z,8.41
2018-12-21T00:16:47.591Z,8.38
2018-12-21T00:17:47.583Z,8.30
2018-12-21T00:18:47.574Z,8.38
2018-12-21T00:19:47.567Z,8.38
2018-12-21T00:20:47.556Z,8.30
2018-12-21T00:21:47.850Z,8.37
2018-12-21T00:22:47.542Z,8.26
2018-12-21T00:23:47.533Z,8.38
2018-12-21T00:24:47.522Z,8.36
2018-12-21T00:25:47.528Z,8.38
2018-12-21T00:26:47.505Z,8.33
2018-12-21T00:27:47.499Z,8.36
2018-12-21T00:28:47.489Z,8.29
2018-12-21T00:29:47.488Z,8.37
2018-12-21T00:30:47.472Z,8.37
2018-12-21T00:31:47.466Z,8.37
2018-12-21T00:32:47.456Z,8.34
2018-12-21T00:33:47.449Z,8.40
2018-12-21T00:34:47.438Z,8.38
2018-12-21T00:35:47.433Z,8.41
2018-12-21T00:36:47.424Z,8.36
2018-12-21T00:37:47.419Z,8.40
2018-12-21T00:38:47.406Z,8.41
2018-12-21T00:39:47.400Z,8.34
2018-12-21T00:40:47.392Z,8.34
2018-12-21T00:41:47.382Z,8.43
2018-12-21T00:42:47.373Z,8.38
2018-12-21T00:43:47.366Z,8.38
2018-12-21T00:44:47.355Z,8.38
2018-12-21T00:45:47.355Z,8.38
2018-12-21T00:46:47.353Z,8.44
2018-12-21T00:47:47.419Z,8.41
2018-12-21T00:48:47.322Z,8.45
2018-12-21T00:49:47.315Z,8.37
2018-12-21T00:50:47.305Z,8.40
2018-12-21T00:51:47.600Z,8.38
2018-12-21T00:52:47.300Z,8.44
2018-12-21T00:53:47.286Z,8.44
2018-12-21T00:54:47.272Z,8.48
2018-12-21T00:55:47.267Z,8.47
2018-12-21T00:56:47.256Z,8.40
2018-12-21T00:57:47.250Z,8.50
2018-12-21T00:58:47.239Z,8.53
2018-12-21T00:59:47.233Z,8.53
2018-12-21T01:00:47.223Z,8.44
2018-12-21T01:01:47.217Z,8.50
2018-12-21T01:02:47.207Z,8.55
2018-12-21T01:03:47.206Z,8.55
2018-12-21T01:04:47.190Z,8.48
2018-12-21T01:05:47.183Z,8.50
2018-12-21T01:06:47.176Z,8.56
2018-12-21T01:07:47.168Z,8.48
2018-12-21T01:08:47.158Z,8.53
2018-12-21T01:09:47.151Z,8.52
2018-12-21T01:10:47.144Z,8.50
2018-12-21T01:11:47.135Z,8.53
2018-12-21T01:12:47.140Z,8.55
2018-12-21T01:13:47.119Z,8.50
2018-12-21T01:14:47.108Z,8.59
2018-12-21T01:15:47.105Z,8.58
2018-12-21T01:16:47.093Z,8.62
2018-12-21T01:17:47.086Z,8.59
2018-12-21T01:18:47.076Z,8.63
2018-12-21T01:19:47.071Z,8.56
2018-12-21T01:20:47.061Z,8.63
2018-12-21T01:21:47.053Z,8.65
2018-12-21T01:22:47.344Z,8.66
2018-12-21T01:23:47.038Z,8.65
2018-12-21T01:24:47.027Z,8.66
2018-12-21T01:25:47.021Z,8.70
2018-12-21T01:26:47.013Z,8.56
2018-12-21T01:27:47.006Z,8.71
2018-12-21T01:28:46.996Z,8.66
2018-12-21T01:29:46.989Z,8.63
2018-12-21T01:30:46.979Z,8.71
2018-12-21T01:31:46.973Z,8.63
2018-12-21T01:32:46.966Z,8.73
2018-12-21T01:33:46.957Z,8.70
2018-12-21T01:34:46.947Z,8.68
2018-12-21T01:35:46.942Z,8.71
2018-12-21T01:36:46.932Z,8.73
2018-12-21T01:37:46.925Z,8.73
2018-12-21T01:38:46.915Z,8.77
2018-12-21T01:39:46.910Z,8.76
2018-12-21T01:40:46.900Z,8.74
2018-12-21T01:41:46.895Z,8.74
2018-12-21T01:42:46.885Z,8.74
2018-12-21T01:43:46.878Z,8.77
2018-12-21T01:44:46.870Z,8.74
2018-12-21T01:45:46.862Z,8.76
2018-12-21T01:46:46.852Z,8.77
2018-12-21T01:47:46.847Z,8.76
2018-12-21T01:48:46.837Z,8.77
2018-12-21T01:49:46.831Z,8.79
2018-12-21T01:50:46.821Z,8.80
2018-12-21T01:51:47.442Z,8.68
2018-12-21T01:52:46.908Z,8.76
2018-12-21T01:53:46.800Z,8.77
2018-12-21T01:54:46.794Z,8.76
2018-12-21T01:55:46.784Z,8.77
2018-12-21T01:56:46.775Z,8.76
2018-12-21T01:57:46.768Z,8.80
2018-12-21T01:58:46.759Z,8.73
2018-12-21T01:59:46.753Z,8.73
2018-12-21T02:00:46.748Z,8.77
2018-12-21T02:01:46.737Z,8.81
2018-12-21T02:02:46.731Z,8.76
2018-12-21T02:03:46.723Z,8.74
2018-12-21T02:04:46.718Z,8.73
2018-12-21T02:05:46.706Z,8.74
2018-12-21T02:06:46.698Z,8.80
2018-12-21T02:07:46.693Z,8.77
2018-12-21T02:08:46.682Z,8.74
2018-12-21T02:09:46.676Z,8.77
2018-12-21T02:10:46.666Z,8.76
2018-12-21T02:11:46.661Z,8.79
2018-12-21T02:12:46.654Z,8.86
2018-12-21T02:13:46.644Z,8.80
2018-12-21T02:14:46.639Z,8.80
2018-12-21T02:15:46.630Z,8.79
2018-12-21T02:16:46.622Z,8.79
2018-12-21T02:17:46.615Z,8.83
2018-12-21T02:18:46.604Z,8.77
2018-12-21T02:19:46.600Z,8.91
2018-12-21T02:20:46.590Z,8.84
2018-12-21T02:21:46.584Z,8.94
2018-12-21T02:22:46.574Z,8.80
2018-12-21T02:23:46.570Z,8.87
2018-12-21T02:24:46.560Z,8.87
2018-12-21T02:25:46.557Z,8.91
2018-12-21T02:26:46.544Z,8.84
2018-12-21T02:27:46.839Z,8.83
2018-12-21T02:28:46.529Z,8.95
2018-12-21T02:29:46.523Z,8.92
2018-12-21T02:30:46.514Z,8.96
2018-12-21T02:31:46.509Z,9.05
2018-12-21T02:32:46.499Z,8.98
2018-12-21T02:33:46.493Z,8.99
2018-12-21T02:34:46.484Z,8.95
2018-12-21T02:35:46.478Z,9.08
2018-12-21T02:36:46.479Z,9.10
2018-12-21T02:37:46.466Z,9.05
2018-12-21T02:38:46.452Z,9.04
2018-12-21T02:39:46.449Z,9.04
2018-12-21T02:40:46.439Z,9.14
2018-12-21T02:41:46.431Z,9.15
2018-12-21T02:42:46.421Z,9.01
2018-12-21T02:43:46.424Z,9.04
2018-12-21T02:44:46.424Z,9.04
2018-12-21T02:45:46.400Z,9.14
2018-12-21T02:46:46.391Z,8.96
2018-12-21T02:47:46.387Z,8.99
2018-12-21T02:48:46.377Z,9.01
2018-12-21T02:49:46.371Z,9.08
2018-12-21T02:50:46.360Z,9.02
2018-12-21T02:51:46.355Z,9.14
2018-12-21T02:52:46.347Z,9.18
2018-12-21T02:53:46.340Z,9.14
2018-12-21T02:54:46.331Z,9.18
2018-12-21T02:55:46.325Z,9.15
2018-12-21T02:56:46.315Z,9.20
2018-12-21T02:57:46.611Z,9.24
2018-12-21T02:58:46.300Z,9.14
2018-12-21T02:59:46.296Z,9.23
2018-12-21T03:00:46.285Z,9.24
2018-12-21T03:01:46.280Z,9.33
2018-12-21T03:02:46.272Z,9.32
2018-12-21T03:03:46.265Z,9.24
2018-12-21T03:04:46.257Z,9.24
2018-12-21T03:05:46.251Z,9.23
2018-12-21T03:06:46.241Z,9.24
2018-12-21T03:07:46.235Z,9.24
2018-12-21T03:08:46.226Z,9.28
2018-12-21T03:09:46.221Z,9.23
2018-12-21T03:10:46.213Z,9.28
2018-12-21T03:11:46.208Z,9.32
2018-12-21T03:12:46.195Z,9.31
2018-12-21T03:13:46.190Z,9.29
2018-12-21T03:14:46.180Z,9.29
2018-12-21T03:15:46.176Z,9.26
2018-12-21T03:16:46.166Z,9.28
2018-12-21T03:17:46.162Z,9.31
2018-12-21T03:18:46.153Z,9.28
2018-12-21T03:19:46.147Z,9.29
2018-12-21T03:20:46.140Z,9.24
2018-12-21T03:21:46.131Z,9.31
2018-12-21T03:22:46.125Z,9.28
2018-12-21T03:23:46.118Z,9.29
2018-12-21T03:24:46.108Z,9.17
2018-12-21T03:25:46.101Z,9.21
2018-12-21T03:26:46.093Z,9.24
2018-12-21T03:27:46.089Z,9.24
2018-12-21T03:28:46.328Z,9.26
2018-12-21T03:29:46.170Z,9.18
2018-12-21T03:30:46.065Z,9.21
2018-12-21T03:31:46.060Z,9.21
2018-12-21T03:32:46.051Z,9.15
2018-12-21T03:33:46.047Z,9.17
2018-12-21T03:34:46.037Z,9.10
2018-12-21T03:35:46.033Z,9.10
2018-12-21T03:36:46.022Z,9.08
2018-12-21T03:37:46.015Z,9.01
2018-12-21T03:38:46.038Z,9.11
2018-12-21T03:39:46.002Z,9.04
2018-12-21T03:40:46.023Z,9.04
2018-12-21T03:41:45.986Z,8.98
2018-12-21T03:42:45.978Z,9.05
2018-12-21T03:43:45.976Z,8.99
2018-12-21T03:44:45.962Z,9.02
2018-12-21T03:45:45.957Z,8.95
2018-12-21T03:46:45.946Z,8.95
2018-12-21T03:47:45.942Z,8.95
2018-12-21T03:48:45.933Z,8.96
2018-12-21T03:49:45.932Z,8.92
2018-12-21T03:50:45.917Z,8.96
2018-12-21T03:51:45.914Z,8.84
2018-12-21T03:52:45.907Z,8.94
2018-12-21T03:53:45.904Z,8.84
2018-12-21T03:54:45.888Z,8.98
2018-12-21T03:55:45.884Z,8.86
2018-12-21T03:56:45.875Z,8.98
2018-12-21T03:57:45.890Z,8.95
2018-12-21T03:58:45.859Z,8.86
2018-12-21T03:59:45.854Z,8.83
2018-12-21T04:00:45.845Z,8.89
2018-12-21T04:01:45.839Z,8.83
2018-12-21T04:02:45.831Z,8.86
2018-12-21T04:03:45.827Z,8.95
2018-12-21T04:04:45.817Z,8.94
2018-12-21T04:05:45.810Z,8.95
2018-12-21T04:06:45.801Z,8.92
2018-12-21T04:07:45.807Z,8.92
2018-12-21T04:08:45.787Z,8.99
2018-12-21T04:09:45.781Z,8.86
2018-12-21T04:10:45.778Z,8.99
2018-12-21T04:11:45.766Z,8.96
2018-12-21T04:12:45.757Z,8.95
2018-12-21T04:13:45.751Z,8.81
2018-12-21T04:14:45.742Z,8.91
2018-12-21T04:15:45.737Z,8.91
2018-12-21T04:16:45.729Z,8.98
2018-12-21T04:17:45.726Z,9.01
2018-12-21T04:18:45.714Z,9.04
2018-12-21T04:19:45.707Z,8.98
2018-12-21T04:20:45.698Z,8.92
2018-12-21T04:21:45.693Z,8.95
2018-12-21T04:22:45.684Z,8.87
2018-12-21T04:23:45.678Z,8.96
2018-12-21T04:24:45.669Z,8.94
2018-12-21T04:25:45.663Z,8.98
2018-12-21T04:26:45.654Z,9.01
2018-12-21T04:27:45.646Z,8.96
2018-12-21T04:28:45.641Z,9.01
2018-12-21T04:29:45.632Z,9.02
2018-12-21T04:30:45.643Z,9.01
2018-12-21T04:31:45.620Z,9.10
2018-12-21T04:32:45.611Z,9.01
2018-12-21T04:33:45.608Z,8.95
2018-12-21T04:34:45.612Z,9.08
2018-12-21T04:35:45.590Z,9.02
2018-12-21T04:36:45.582Z,9.04
2018-12-21T04:37:45.572Z,9.01
2018-12-21T04:38:45.568Z,9.14
2018-12-21T04:39:45.559Z,9.10
2018-12-21T04:40:45.558Z,9.13
2018-12-21T04:41:45.552Z,9.10
2018-12-21T04:42:45.543Z,9.05
2018-12-21T04:43:45.529Z,9.14
2018-12-21T04:44:45.523Z,9.11
2018-12-21T04:45:45.514Z,9.11
2018-12-21T04:46:45.510Z,9.14
2018-12-21T04:47:45.500Z,9.18
2018-12-21T04:48:45.494Z,9.18
2018-12-21T04:49:45.484Z,9.26
2018-12-21T04:50:45.480Z,9.18
2018-12-21T04:51:45.571Z,9.15
2018-12-21T04:52:45.466Z,9.18
2018-12-21T04:53:45.455Z,9.29
2018-12-21T04:54:45.451Z,9.24
2018-12-21T04:55:45.453Z,9.20
2018-12-21T04:56:45.436Z,9.26
2018-12-21T04:57:45.426Z,9.21
2018-12-21T04:58:45.421Z,9.33
2018-12-21T04:59:45.415Z,9.35
2018-12-21T05:00:45.408Z,9.36
2018-12-21T05:01:45.397Z,9.29
2018-12-21T05:02:45.392Z,9.32
2018-12-21T05:03:45.684Z,9.32
2018-12-21T05:04:45.378Z,9.32
2018-12-21T05:05:45.371Z,9.23
2018-12-21T05:06:45.364Z,9.33
2018-12-21T05:07:45.354Z,9.35
2018-12-21T05:08:45.349Z,9.38
2018-12-21T05:09:45.341Z,9.42
2018-12-21T05:10:45.334Z,9.42
2018-12-21T05:11:45.325Z,9.43
2018-12-21T05:12:45.320Z,9.36
2018-12-21T05:13:45.311Z,9.35
2018-12-21T05:14:45.308Z,9.48
2018-12-21T05:15:45.297Z,9.35
2018-12-21T05:16:45.295Z,9.38
2018-12-21T05:17:45.281Z,9.36
2018-12-21T05:18:45.277Z,9.31
2018-12-21T05:19:45.270Z,9.47
2018-12-21T05:20:45.263Z,9.42
2018-12-21T05:21:45.253Z,9.40
2018-12-21T05:22:52.215Z,9.42
2018-12-21T05:23:45.240Z,9.57
2018-12-21T05:24:45.235Z,9.48
2018-12-21T05:25:45.225Z,9.51
2018-12-21T05:26:45.220Z,9.50
2018-12-21T05:27:45.211Z,9.56
2018-12-21T05:28:45.207Z,9.57
2018-12-21T05:29:45.204Z,9.50
2018-12-21T05:30:45.192Z,9.51
2018-12-21T05:31:45.184Z,9.50
2018-12-21T05:32:45.180Z,9.51
2018-12-21T05:33:45.469Z,9.56
2018-12-21T05:34:45.166Z,9.51
2018-12-21T05:35:45.158Z,9.53
2018-12-21T05:36:45.150Z,9.53
2018-12-21T05:37:45.140Z,9.54
2018-12-21T05:38:45.138Z,9.51
2018-12-21T05:39:45.127Z,9.47
2018-12-21T05:40:45.124Z,9.56
2018-12-21T05:41:45.112Z,9.53
2018-12-21T05:42:45.108Z,9.42
2018-12-21T05:43:45.099Z,9.36
2018-12-21T05:44:45.095Z,9.47
2018-12-21T05:45:45.085Z,9.38
2018-12-21T05:46:45.079Z,9.39
2018-12-21T05:47:45.073Z,9.38
2018-12-21T05:48:45.066Z,9.36
2018-12-21T05:49:45.055Z,9.38
2018-12-21T05:50:45.064Z,9.33
2018-12-21T05:51:45.042Z,9.17
2018-12-21T05:52:45.037Z,9.29
2018-12-21T05:53:45.027Z,9.20
2018-12-21T05:54:45.022Z,9.20
2018-12-21T05:55:45.012Z,9.20
2018-12-21T05:56:45.007Z,9.23
2018-12-21T05:57:44.998Z,9.23
2018-12-21T05:58:44.992Z,9.28
2018-12-21T05:59:44.989Z,9.29
2018-12-21T06:00:44.978Z,9.32
2018-12-21T06:01:44.967Z,9.33
2018-12-21T06:02:44.965Z,9.40
2018-12-21T06:03:44.953Z,9.26
2018-12-21T06:04:44.948Z,9.39
2018-12-21T06:05:44.938Z,9.38
2018-12-21T06:06:44.932Z,9.38
2018-12-21T06:07:44.923Z,9.39
2018-12-21T06:08:44.919Z,9.43
2018-12-21T06:09:44.908Z,9.35
2018-12-21T06:10:44.903Z,9.50
2018-12-21T06:11:44.894Z,9.43
2018-12-21T06:12:44.888Z,9.46
2018-12-21T06:13:44.878Z,9.51
2018-12-21T06:14:44.877Z,9.56
2018-12-21T06:15:44.864Z,9.54
2018-12-21T06:16:44.925Z,9.50
2018-12-21T06:17:44.850Z,9.47
2018-12-21T06:18:44.845Z,9.48
2018-12-21T06:19:44.835Z,9.53
2018-12-21T06:20:44.830Z,9.51
2018-12-21T06:21:44.820Z,9.53
2018-12-21T06:22:44.818Z,9.54
2018-12-21T06:23:44.805Z,9.60
2018-12-21T06:24:44.802Z,9.65
2018-12-21T06:25:44.872Z,9.56
2018-12-21T06:26:44.785Z,9.64
2018-12-21T06:27:44.776Z,9.56
2018-12-21T06:28:44.772Z,9.61
2018-12-21T06:29:44.761Z,9.58
2018-12-21T06:30:44.756Z,9.69
2018-12-21T06:31:44.747Z,9.71
2018-12-21T06:32:44.744Z,9.66
2018-12-21T06:33:44.750Z,9.74
2018-12-21T06:34:44.729Z,9.58
2018-12-21T06:35:44.718Z,9.64
2018-12-21T06:36:44.713Z,9.64
2018-12-21T06:37:44.707Z,9.64
2018-12-21T06:38:44.700Z,9.60
2018-12-21T06:39:44.690Z,9.61
2018-12-21T06:40:44.691Z,9.58
2018-12-21T06:41:44.690Z,9.61
2018-12-21T06:42:44.669Z,9.61
2018-12-21T06:43:44.662Z,9.61
2018-12-21T06:44:44.655Z,9.53
2018-12-21T06:45:44.644Z,9.56
2018-12-21T06:46:44.641Z,9.50
2018-12-21T06:47:44.631Z,9.50
2018-12-21T06:48:44.626Z,9.48
2018-12-21T06:49:44.615Z,9.50
2018-12-21T06:50:44.610Z,9.51
2018-12-21T06:51:44.601Z,9.43
2018-12-21T06:52:44.595Z,9.42
2018-12-21T06:53:44.585Z,9.33
2018-12-21T06:54:44.580Z,9.36
2018-12-21T06:55:44.571Z,9.35
2018-12-21T06:56:44.566Z,9.42
2018-12-21T06:57:44.558Z,9.38
2018-12-21T06:58:44.550Z,9.33
2018-12-21T06:59:44.540Z,9.39
2018-12-21T07:00:44.535Z,9.39
2018-12-21T07:01:44.528Z,9.39
2018-12-21T07:02:44.523Z,9.33
2018-12-21T07:03:44.510Z,9.31
2018-12-21T07:04:44.506Z,9.31
2018-12-21T07:05:44.495Z,9.28
2018-12-21T07:06:44.490Z,9.32
2018-12-21T07:07:44.480Z,9.32
2018-12-21T07:08:44.475Z,9.21
2018-12-21T07:09:44.464Z,9.26
2018-12-21T07:10:44.459Z,9.23
2018-12-21T07:11:44.450Z,9.18
2018-12-21T07:12:44.444Z,9.29
2018-12-21T07:13:44.442Z,9.26
2018-12-21T07:14:44.429Z,9.28
2018-12-21T07:15:44.419Z,9.20
2018-12-21T07:16:44.414Z,9.17
2018-12-21T07:17:44.403Z,9.15
2018-12-21T07:18:44.398Z,9.15
2018-12-21T07:19:44.390Z,9.13
2018-12-21T07:20:44.383Z,9.18
2018-12-21T07:21:44.372Z,9.02
2018-12-21T07:22:44.367Z,9.08
2018-12-21T07:23:44.357Z,9.05
2018-12-21T07:24:44.353Z,9.10
2018-12-21T07:25:44.343Z,9.02
2018-12-21T07:26:44.335Z,8.98
2018-12-21T07:27:44.326Z,9.08
2018-12-21T07:28:44.320Z,8.98
2018-12-21T07:29:44.310Z,8.98
2018-12-21T07:30:44.304Z,8.96
2018-12-21T07:31:44.294Z,9.02
2018-12-21T07:32:44.290Z,9.01
2018-12-21T07:33:44.280Z,8.92
2018-12-21T07:34:44.272Z,8.95
2018-12-21T07:35:44.262Z,8.96
2018-12-21T07:36:44.257Z,8.96
2018-12-21T07:37:44.247Z,8.89
2018-12-21T07:38:44.347Z,8.96
2018-12-21T07:39:44.232Z,8.95
2018-12-21T07:40:44.228Z,8.87
2018-12-21T07:41:44.216Z,8.91
2018-12-21T07:42:44.209Z,8.89
2018-12-21T07:43:44.200Z,8.96
2018-12-21T07:44:44.194Z,8.95
2018-12-21T07:45:44.182Z,8.84
2018-12-21T07:46:44.183Z,8.92
2018-12-21T07:47:44.175Z,8.81
2018-12-21T07:48:44.162Z,8.94
2018-12-21T07:49:44.151Z,8.83
2018-12-21T07:50:44.147Z,8.94
2018-12-21T07:51:44.136Z,8.98
2018-12-21T07:52:44.130Z,9.01
2018-12-21T07:53:44.119Z,8.95
2018-12-21T07:54:44.116Z,8.92
2018-12-21T07:55:44.104Z,8.94
2018-12-21T07:56:44.100Z,9.05
2018-12-21T07:57:44.089Z,8.99
2018-12-21T07:58:44.083Z,9.01
2018-12-21T07:59:44.077Z,8.95
2018-12-21T08:00:44.068Z,8.95
2018-12-21T08:01:44.056Z,8.92
2018-12-21T08:02:44.052Z,9.05
2018-12-21T08:03:44.040Z,9.01
2018-12-21T08:04:44.036Z,8.99
2018-12-21T08:05:44.024Z,8.86
2018-12-21T08:06:44.022Z,8.87
2018-12-21T08:07:44.009Z,9.01
2018-12-21T08:08:44.004Z,8.91
2018-12-21T08:09:43.992Z,9.02
2018-12-21T08:10:43.988Z,8.87
2018-12-21T08:11:43.977Z,8.92
2018-12-21T08:12:43.972Z,8.96
2018-12-21T08:13:43.961Z,8.95
2018-12-21T08:14:43.955Z,8.99
2018-12-21T08:15:43.948Z,9.01
2018-12-21T08:16:43.940Z,8.99
2018-12-21T08:17:43.929Z,8.94
2018-12-21T08:18:43.925Z,8.96
2018-12-21T08:19:43.914Z,9.02
2018-12-21T08:20:43.909Z,9.05
2018-12-21T08:21:43.898Z,8.99
2018-12-21T08:22:43.893Z,8.96
2018-12-21T08:23:44.386Z,9.05
2018-12-21T08:24:43.878Z,9.11
2018-12-21T08:25:43.873Z,9.05
2018-12-21T08:26:43.870Z,9.04
2018-12-21T08:27:43.870Z,9.11
2018-12-21T08:28:43.848Z,9.11
2018-12-21T08:29:43.837Z,9.14
2018-12-21T08:30:43.831Z,9.08
2018-12-21T08:31:43.824Z,9.21
2018-12-21T08:32:43.819Z,9.26
2018-12-21T08:33:43.816Z,9.26
2018-12-21T08:34:43.859Z,9.26
2018-12-21T08:35:43.900Z,9.26
2018-12-21T08:36:43.787Z,9.21
2018-12-21T08:37:43.775Z,9.24
2018-12-21T08:38:43.770Z,9.23
2018-12-21T08:39:43.762Z,9.28
2018-12-21T08:40:43.759Z,9.28
2018-12-21T08:41:45.014Z,9.29
2018-12-21T08:42:43.742Z,9.46
2018-12-21T08:43:43.734Z,9.38
2018-12-21T08:44:43.734Z,9.32
2018-12-21T08:45:43.718Z,9.39
2018-12-21T08:46:43.713Z,9.35
2018-12-21T08:47:43.703Z,9.33
2018-12-21T08:48:43.694Z,9.42
2018-12-21T08:49:43.688Z,9.40
2018-12-21T08:50:43.678Z,9.36
2018-12-21T08:51:43.674Z,9.46
2018-12-21T08:52:43.664Z,9.48
2018-12-21T08:53:43.658Z,9.43
2018-12-21T08:54:43.649Z,9.53
2018-12-21T08:55:43.644Z,9.53
2018-12-21T08:56:43.638Z,9.43
2018-12-21T08:57:43.628Z,9.53
2018-12-21T08:58:43.621Z,9.50
2018-12-21T08:59:43.614Z,9.58
2018-12-21T09:00:43.604Z,9.58
2018-12-21T09:01:43.599Z,9.58
2018-12-21T09:02:43.593Z,9.57
2018-12-21T09:03:43.584Z,9.61
2018-12-21T09:04:43.574Z,9.61
2018-12-21T09:05:43.568Z,9.66
2018-12-21T09:06:43.559Z,9.58
2018-12-21T09:07:43.555Z,9.66
2018-12-21T09:08:43.545Z,9.64
2018-12-21T09:09:43.542Z,9.60
2018-12-21T09:10:43.529Z,9.74
2018-12-21T09:11:43.524Z,9.75
2018-12-21T09:12:43.515Z,9.74
2018-12-21T09:13:43.509Z,9.69
2018-12-21T09:14:43.503Z,9.71
2018-12-21T09:15:43.500Z,9.72
2018-12-21T09:16:43.485Z,9.72
2018-12-21T09:17:43.481Z,9.74
2018-12-21T09:18:43.471Z,9.74
2018-12-21T09:19:43.468Z,9.68
2018-12-21T09:20:43.457Z,9.72
2018-12-21T09:21:43.450Z,9.66
2018-12-21T09:22:43.442Z,9.69
2018-12-21T09:23:43.436Z,9.74
2018-12-21T09:24:43.426Z,9.75
2018-12-21T09:25:43.420Z,9.75
2018-12-21T09:26:43.411Z,9.79
2018-12-21T09:27:43.406Z,9.76
2018-12-21T09:28:43.396Z,9.78
2018-12-21T09:29:43.391Z,9.78
2018-12-21T09:30:43.381Z,9.83
2018-12-21T09:31:43.377Z,9.86
2018-12-21T09:32:43.367Z,9.86
2018-12-21T09:33:43.361Z,9.87
2018-12-21T09:34:43.352Z,9.81
2018-12-21T09:35:43.347Z,9.84
2018-12-21T09:36:43.348Z,9.89
2018-12-21T09:37:43.331Z,9.93
2018-12-21T09:38:43.331Z,9.87
2018-12-21T09:39:43.317Z,9.89
2018-12-21T09:40:43.309Z,9.83
2018-12-21T09:41:43.301Z,9.84
2018-12-21T09:42:43.293Z,9.83
2018-12-21T09:43:43.287Z,9.86
2018-12-21T09:44:43.278Z,9.84
2018-12-21T09:45:43.272Z,9.87
2018-12-21T09:46:43.262Z,9.87
2018-12-21T09:47:43.260Z,9.84
2018-12-21T09:48:43.247Z,9.86
2018-12-21T09:49:43.241Z,9.78
2018-12-21T09:50:43.233Z,9.84
2018-12-21T09:51:45.325Z,9.90
2018-12-21T09:52:43.218Z,9.89
2018-12-21T09:53:43.211Z,9.89
2018-12-21T09:54:43.202Z,9.89
2018-12-21T09:55:43.198Z,9.89
2018-12-21T09:56:43.188Z,9.86
2018-12-21T09:57:43.181Z,9.91
2018-12-21T09:58:43.172Z,9.89
2018-12-21T09:59:43.175Z,9.90
2018-12-21T10:00:43.158Z,9.91
2018-12-21T10:01:43.152Z,9.94
2018-12-21T10:02:43.142Z,9.86
2018-12-21T10:03:43.138Z,9.97
2018-12-21T10:04:43.129Z,9.97
2018-12-21T10:05:43.122Z,9.91
2018-12-21T10:06:43.113Z,9.93
2018-12-21T10:07:43.109Z,10.02
2018-12-21T10:08:43.100Z,10.01
2018-12-21T10:09:43.095Z,9.94
2018-12-21T10:10:43.084Z,9.94
2018-12-21T10:11:43.079Z,9.97
2018-12-21T10:12:43.070Z,10.01
2018-12-21T10:13:43.064Z,10.02
2018-12-21T10:14:43.054Z,10.02
2018-12-21T10:15:43.051Z,9.99
2018-12-21T10:16:43.043Z,9.91
2018-12-21T10:17:43.035Z,9.97
2018-12-21T10:18:43.026Z,9.96
2018-12-21T10:19:43.021Z,9.97
2018-12-21T10:20:43.013Z,10.04
2018-12-21T10:21:43.006Z,10.04
2018-12-21T10:22:42.997Z,9.99
2018-12-21T10:23:42.999Z,10.11
2018-12-21T10:24:42.994Z,10.09
2018-12-21T10:25:42.988Z,10.01
2018-12-21T10:26:42.972Z,10.04
2018-12-21T10:27:42.963Z,10.07
2018-12-21T10:28:42.954Z,10.11
2018-12-21T10:29:42.949Z,10.09
2018-12-21T10:30:42.939Z,10.04
2018-12-21T10:31:42.944Z,10.02
2018-12-21T10:32:42.941Z,10.02
2018-12-21T10:33:42.919Z,10.08
2018-12-21T10:34:42.910Z,10.02
2018-12-21T10:35:42.906Z,10.05
2018-12-21T10:36:42.897Z,10.02
2018-12-21T10:37:42.892Z,10.12
2018-12-21T10:38:42.882Z,10.14
2018-12-21T10:39:42.877Z,10.14
2018-12-21T10:40:42.868Z,10.12
2018-12-21T10:41:42.863Z,10.07
2018-12-21T10:42:42.855Z,10.07
2018-12-21T10:43:42.849Z,10.08
2018-12-21T10:44:42.839Z,10.08
2018-12-21T10:45:42.834Z,10.18
2018-12-21T10:46:42.826Z,10.15
2018-12-21T10:47:42.821Z,10.17
2018-12-21T10:48:42.810Z,10.26
2018-12-21T10:49:42.806Z,10.26
2018-12-21T10:50:42.800Z,10.17
2018-12-21T10:51:42.792Z,10.20
2018-12-21T10:52:42.783Z,10.18
2018-12-21T10:53:46.570Z,10.23
2018-12-21T10:54:42.768Z,10.17
2018-12-21T10:55:42.763Z,10.25
2018-12-21T10:56:42.754Z,10.32
2018-12-21T10:57:42.749Z,10.32
2018-12-21T10:58:42.740Z,10.40
2018-12-21T10:59:43.566Z,10.38
2018-12-21T11:00:42.731Z,10.42
2018-12-21T11:01:42.722Z,10.36
2018-12-21T11:02:42.713Z,10.40
2018-12-21T11:03:42.707Z,10.42
2018-12-21T11:04:42.699Z,10.42
2018-12-21T11:05:42.693Z,10.40
2018-12-21T11:06:42.683Z,10.55
2018-12-21T11:07:42.679Z,10.55
2018-12-21T11:08:42.670Z,10.51
2018-12-21T11:09:42.665Z,10.55
2018-12-21T11:10:42.656Z,10.44
2018-12-21T11:11:42.651Z,10.55
2018-12-21T11:12:42.642Z,10.59
2018-12-21T11:13:42.636Z,10.60
2018-12-21T11:14:42.628Z,10.59
2018-12-21T11:15:42.623Z,10.63
2018-12-21T11:16:42.615Z,10.67
2018-12-21T11:17:43.959Z,10.66
2018-12-21T11:18:42.600Z,10.63
2018-12-21T11:19:42.596Z,10.63
2018-12-21T11:20:42.586Z,10.66
2018-12-21T11:21:42.582Z,10.71
2018-12-21T11:22:42.573Z,10.68
2018-12-21T11:23:42.568Z,10.68
2018-12-21T11:24:42.560Z,10.79
2018-12-21T11:25:42.558Z,10.70
2018-12-21T11:26:42.546Z,10.81
2018-12-21T11:27:42.543Z,10.78
2018-12-21T11:28:42.537Z,10.79
2018-12-21T11:29:42.527Z,10.84
2018-12-21T11:30:42.519Z,10.85
2018-12-21T11:31:42.514Z,10.94
2018-12-21T11:32:42.506Z,10.99
2018-12-21T11:33:42.514Z,10.99
2018-12-21T11:34:42.492Z,11.06
2018-12-21T11:35:42.493Z,11.07
2018-12-21T11:36:42.479Z,11.10
2018-12-21T11:37:42.474Z,11.14
2018-12-21T11:38:42.465Z,11.10
2018-12-21T11:39:42.464Z,11.18
2018-12-21T11:40:42.559Z,11.22
2018-12-21T11:41:42.448Z,11.27
2018-12-21T11:42:42.441Z,11.17
2018-12-21T11:43:42.440Z,11.32
2018-12-21T11:44:42.429Z,11.42
2018-12-21T11:45:42.428Z,11.42
2018-12-21T11:46:42.513Z,11.33
2018-12-21T11:47:42.413Z,11.33
2018-12-21T11:48:42.401Z,11.39
2018-12-21T11:49:42.396Z,11.35
2018-12-21T11:50:42.395Z,11.32
2018-12-21T11:51:42.384Z,11.47
2018-12-21T11:52:42.376Z,11.47
2018-12-21T11:53:42.466Z,11.39
2018-12-21T11:54:44.410Z,11.43
2018-12-21T11:55:42.359Z,11.47
2018-12-21T11:56:42.352Z,11.51
2018-12-21T11:57:42.345Z,11.64
2018-12-21T11:58:42.338Z,11.61
2018-12-21T11:59:45.070Z,11.55
2018-12-21T12:00:42.341Z,11.58
2018-12-21T12:01:42.326Z,11.58
2018-12-21T12:02:42.311Z,11.65
2018-12-21T12:03:42.308Z,11.62
2018-12-21T12:04:42.299Z,11.69
2018-12-21T12:05:42.294Z,11.72
2018-12-21T12:06:42.303Z,11.73
2018-12-21T12:07:42.282Z,11.73
2018-12-21T12:08:42.275Z,11.67
2018-12-21T12:09:42.269Z,11.67
2018-12-21T12:10:42.263Z,11.83
2018-12-21T12:11:42.258Z,11.80
2018-12-21T12:12:42.253Z,11.83
2018-12-21T12:13:42.244Z,11.91
2018-12-21T12:14:42.237Z,11.96
2018-12-21T12:15:42.233Z,11.91
2018-12-21T12:16:42.225Z,12.01
2018-12-21T12:17:42.220Z,11.99
2018-12-21T12:18:42.217Z,12.09
2018-12-21T12:19:42.208Z,12.05
2018-12-21T12:20:42.200Z,12.02
2018-12-21T12:21:42.195Z,12.09
2018-12-21T12:22:42.188Z,12.09
2018-12-21T12:23:42.184Z,12.10
2018-12-21T12:24:42.186Z,12.13
2018-12-21T12:25:42.171Z,12.12
2018-12-21T12:26:44.517Z,12.13
2018-12-21T12:27:42.161Z,12.17
2018-12-21T12:28:42.156Z,12.16
2018-12-21T12:29:42.149Z,12.23
2018-12-21T12:30:42.141Z,12.21
2018-12-21T12:31:43.036Z,12.24
2018-12-21T12:32:42.136Z,12.37
2018-12-21T12:33:42.139Z,12.31
2018-12-21T12:34:42.117Z,12.38
2018-12-21T12:35:42.114Z,12.39
2018-12-21T12:36:42.107Z,12.45
2018-12-21T12:37:42.102Z,12.46
2018-12-21T12:38:42.094Z,12.50
2018-12-21T12:39:42.091Z,12.53
2018-12-21T12:40:42.083Z,12.50
2018-12-21T12:41:42.087Z,12.60
2018-12-21T12:42:42.085Z,12.53
2018-12-21T12:43:42.069Z,12.52
2018-12-21T12:44:42.062Z,12.60
2018-12-21T12:45:42.057Z,12.60
2018-12-21T12:46:42.049Z,12.68
2018-12-21T12:47:42.046Z,12.68
2018-12-21T12:48:42.039Z,12.71
2018-12-21T12:49:42.042Z,12.71
2018-12-21T12:50:42.028Z,12.65
2018-12-21T12:51:42.028Z,12.71
2018-12-21T12:52:42.017Z,12.74
2018-12-21T12:53:42.014Z,12.70
2018-12-21T12:54:42.006Z,12.79
2018-12-21T12:55:42.005Z,12.82
2018-12-21T12:56:42.000Z,12.82
2018-12-21T12:57:41.993Z,12.85
2018-12-21T12:58:41.987Z,12.85
2018-12-21T12:59:41.980Z,12.86
2018-12-21T13:00:41.977Z,12.89
2018-12-21T13:01:41.968Z,12.87
2018-12-21T13:02:41.967Z,12.92
2018-12-21T13:03:42.208Z,12.92
2018-12-21T13:04:41.956Z,12.95
2018-12-21T13:05:41.949Z,12.90
2018-12-21T13:06:41.945Z,13.00
2018-12-21T13:07:41.938Z,13.03
2018-12-21T13:08:41.936Z,12.97
2018-12-21T13:09:41.929Z,13.11
2018-12-21T13:10:41.925Z,13.08
2018-12-21T13:11:41.919Z,13.05
2018-12-21T13:12:41.916Z,13.08